WetterOnline ( https://www.wetteronline.de )

Wetter aktuell Cuxhaven

Aktuelles Wetter: Cuxhaven (12m)

6-stündlich | Neueste Meldungen
Ortszeit Temperatur Wetter
Do, 09.02. 13:00 2.9° C wolkig
Do, 09.02. 7:00 0.4° C wolkig
Do, 09.02. 1:00 -0.1° C wolkenlos
Mi, 08.02. 19:00 3.4° C fast wolkenlos
Mi, 08.02. 13:00 3.8° C wolkenlos
Mi, 08.02. 7:00 -2.4° C leicht bewölkt
Mi, 08.02. 1:00 -1.1° C wolkenlos
Di, 07.02. 19:00 1.3° C wolkenlos
Ortszeit Temperatur Wetter
Do, 09.02. 13:00 2.9° C wolkig
Do, 09.02. 12:50 2.9° C wolkig
Do, 09.02. 12:40 2.8° C bedeckt
Do, 09.02. 12:30 2.7° C wolkig
Do, 09.02. 12:20 2.7° C wolkig
Do, 09.02. 12:10 2.7° C bedeckt
Do, 09.02. 12:00 2.5° C bedeckt
Do, 09.02. 11:30 2.0° C wolkig
Do, 09.02. 11:00 1.6° C wolkig
Do, 09.02. 10:30 1.1° C wolkig
Do, 09.02. 10:00 0.6° C wolkig
Ortszeit Relative Feuchte Sichtweite
Do, 09.02. 13:00 67% 35 km
Do, 09.02. 7:00 60% 40 km
Do, 09.02. 1:00 73% 17 km
Mi, 08.02. 19:00 46% 35 km
Mi, 08.02. 13:00 61% 23 km
Mi, 08.02. 7:00 83% 16 km
Mi, 08.02. 1:00 84% 17 km
Di, 07.02. 19:00 74% 30 km
Ortszeit Relative Feuchte Sichtweite
Do, 09.02. 13:00 67% 35 km
Do, 09.02. 12:50 67% -
Do, 09.02. 12:40 67% -
Do, 09.02. 12:30 66% 35 km
Do, 09.02. 12:20 66% -
Do, 09.02. 12:10 64% -
Do, 09.02. 12:00 63% 30 km
Do, 09.02. 11:30 63% 35 km
Do, 09.02. 11:00 62% 35 km
Do, 09.02. 10:30 62% 40 km
Do, 09.02. 10:00 64% 30 km
Ortszeit Niederschlagsmenge Niederschlagsart
Do, 09.02. 13:00 0.0 l/m2 in 6 Std. -
Do, 09.02. 7:00 0.0 l/m2 in 12 Std. -
Do, 09.02. 1:00 0.0 l/m2 in 6 Std. -
Mi, 08.02. 19:00 0.0 l/m2 in 12 Std. -
Mi, 08.02. 13:00 0.0 l/m2 in 6 Std. -
Mi, 08.02. 7:00 0.0 l/m2 in 12 Std. -
Mi, 08.02. 1:00 0.0 l/m2 in 6 Std. -
Di, 07.02. 19:00 0.0 l/m2 in 12 Std. -
Ortszeit Niederschlagsmenge Niederschlagsart
Do, 09.02. 13:00 0.0 l/m2 in 1 Std. -
Do, 09.02. 12:50 keine Meldung -
Do, 09.02. 12:40 keine Meldung -
Do, 09.02. 12:30 0.0 l/m2 in 30 Min -
Do, 09.02. 12:20 keine Meldung -
Do, 09.02. 12:10 keine Meldung -
Do, 09.02. 12:00 0.0 l/m2 in 1 Std. -
Do, 09.02. 11:30 0.0 l/m2 in 30 Min -
Do, 09.02. 11:00 0.0 l/m2 in 1 Std. -
Do, 09.02. 10:30 0.0 l/m2 in 30 Min -
Do, 09.02. 10:00 0.0 l/m2 in 1 Std. -
Ortszeit Stärke Spitze Richtung
km/h Bft. km/h Grad Sektor
Do, 09.02. 13:00 18 3 40 230° SW
Do, 09.02. 7:00 17 3 41 200° S
Do, 09.02. 1:00 11 2 29 170° S
Mi, 08.02. 19:00 13 3 26 160° S
Mi, 08.02. 13:00 9 2 24 180° S
Mi, 08.02. 7:00 7 2 18 160° S
Mi, 08.02. 1:00 6 1 15 190° S
Di, 07.02. 19:00 6 1 15 170° S
Ortszeit Stärke Spitze Richtung
km/h Bft. km/h Grad Sektor
Do, 09.02. 13:00 18 3 36 230° SW
Do, 09.02. 12:50 18 3 - 230° SW
Do, 09.02. 12:40 18 3 - 230° SW
Do, 09.02. 12:30 19 3 35 230° SW
Do, 09.02. 12:20 19 3 - 230° SW
Do, 09.02. 12:10 18 3 - 220° SW
Do, 09.02. 12:00 18 3 40 220° SW
Do, 09.02. 11:30 22 4 40 220° SW
Do, 09.02. 11:00 22 4 40 220° SW
Do, 09.02. 10:30 20 4 35 210° SW
Do, 09.02. 10:00 19 3 35 210° SW
Ortszeit Untergrenze Bedeckung Gattung
total tief tief mittel hoch
Do, 09.02. 13:00 780 m 8/8 2/8 - - -
Do, 09.02. 7:00 7800 m 8/8 0/8 - - -
Do, 09.02. 1:00 - 0/8 0/8 - - -
Mi, 08.02. 19:00 10500 m 2/8 0/8 - - -
Mi, 08.02. 13:00 - 0/8 0/8 - - -
Mi, 08.02. 7:00 9000 m 3/8 0/8 - - -
Mi, 08.02. 1:00 - 0/8 0/8 - - -
Di, 07.02. 19:00 - 0/8 0/8 - - -
Ortszeit Bedeckungsgrad in Achtel und Wolkenuntergrenze
Do, 09.02. 13:00 2(780m) 5(6000m) 8(6600m)
Do, 09.02. 12:50 2(780m) 5(6000m) 8(6600m)
Do, 09.02. 12:40 8
Do, 09.02. 12:30 1(660m) 8(5100m)
Do, 09.02. 12:20 1(660m) 8(5100m)
Do, 09.02. 12:10 8
Do, 09.02. 12:00 8(5400m) 8(6000m) 8(7200m)
Do, 09.02. 11:30 1(5400m) 7(7500m)
Do, 09.02. 11:00 8(7800m)
Do, 09.02. 10:30 8(7800m)
Do, 09.02. 10:00 8(7800m)
Ortszeit Luftdruck NN (hPa) Tendenz (hPa in 3 Std.)
Do, 09.02. 13:00 1029 + 0,1
Do, 09.02. 7:00 1029 - 1,2
Do, 09.02. 1:00 1032 - 1,5
Mi, 08.02. 19:00 1035 - 2,0
Mi, 08.02. 13:00 1039 - 0,5
Mi, 08.02. 7:00 1040 + 0,1
Mi, 08.02. 1:00 1041 - 0,1
Di, 07.02. 19:00 1040 - 0,3
Ortszeit Luftdruck NN (hPa) Tendenz (hPa in 3 Std.)
Do, 09.02. 13:00 1029 + 0,1
Do, 09.02. 12:50 1029 keine Meldung
Do, 09.02. 12:40 1029 keine Meldung
Do, 09.02. 12:30 1029 + 0,4
Do, 09.02. 12:20 1029 keine Meldung
Do, 09.02. 12:10 1029 keine Meldung
Do, 09.02. 12:00 1029 - 0,1
Do, 09.02. 11:30 1029 - 0,1
Do, 09.02. 11:00 1029 - 0,4
Do, 09.02. 10:30 1029 - 0,2
Do, 09.02. 10:00 1029 0,0
Ortszeit Schneehöhe (cm)
Do, 09.02. 13:00 0
Do, 09.02. 7:00 0
Do, 09.02. 1:00 0
Mi, 08.02. 19:00 0
Mi, 08.02. 13:00 0
Mi, 08.02. 7:00 0
Mi, 08.02. 1:00 0
Di, 07.02. 19:00 0
Ortszeit Schneehöhe (cm)
Do, 09.02. 13:00 0
Do, 09.02. 12:50 0
Do, 09.02. 12:40 0
Do, 09.02. 12:30 0
Do, 09.02. 12:20 0
Do, 09.02. 12:10 0
Do, 09.02. 12:00 0
Do, 09.02. 11:30 0
Do, 09.02. 11:00 0
Do, 09.02. 10:30 0
Do, 09.02. 10:00 0
Link zu dieser Seite / Seite empfehlen

Das Wetter in ...